Weather reports worldwide

Advertisment
Bielsa, Spain (8103): temperature & dewpoint: 20.09.2018 11:00:00 - 26.09.2018 11:00:00 (CEST)Bielsa, Spain (8103): wind speed & gusts: 20.09.2018 11:00:00 - 26.09.2018 11:00:00 (CEST)Bielsa, Spain (8103): wind direction: 20.09.2018 11:00:00 - 26.09.2018 11:00:00 (CEST)Bielsa, Spain (8103): visibility: 20.09.2018 11:00:00 - 26.09.2018 11:00:00 (CEST)Bielsa, Spain (8103): sunshine duration: 20.09.2018 11:00:00 - 26.09.2018 11:00:00 (CEST)Bielsa, Spain (8103): precipitation: 20.09.2018 11:00:00 - 26.09.2018 11:00:00 (CEST)
Date & Time tt [°C] td [°C] ff [km/h] ff [kn] fx [km/h] fx [kn] dd vv [km] sd [min] rr [mm]
26.09.2018 11:00:00 16,5 10,5 3 2 9 5 ESE 20 35 0,0
26.09.2018 10:00:00 12,6 11,0 1 1 3 2 SE 20 0 0,0
26.09.2018 09:00:00 10,4 9,9 0 0 5 3 N 20 0 0,0
26.09.2018 08:00:00 9,9 9,6 1 1 6 4 NE 20 0 -
26.09.2018 07:00:00 9,3 9,0 1 1 4 2 SE 20 0 0,0
26.09.2018 06:00:00 9,0 8,4 1 1 4 2 NNW 20 0 0,0
26.09.2018 05:00:00 9,8 8,9 1 1 13 7 NNW 20 0 0,0
26.09.2018 04:00:00 10,8 9,7 0 0 13 7 N 20 0 0,0
26.09.2018 03:00:00 11,1 9,2 1 1 4 2 NNW 20 0 0,0
26.09.2018 02:00:00 12,8 10,5 2 1 6 4 NNW 20 0 -
26.09.2018 01:00:00 13,3 10,5 3 1 6 4 NW 20 0 0,0
26.09.2018 00:00:00 13,3 10,6 2 1 5 3 NW 20 0 0,0
25.09.2018 23:00:00 13,9 10,5 0 0 5 3 N 20 0 0,0
25.09.2018 22:00:00 14,7 9,7 1 1 16 9 NW 20 0 0,0
25.09.2018 21:00:00 16,7 8,7 4 2 20 11 SE 20 0 0,0
25.09.2018 20:00:00 - - - - - - - - - -
25.09.2018 19:00:00 18,0 10,2 3 1 16 9 S 20 0 0,0
25.09.2018 18:00:00 19,1 9,8 5 3 21 11 SSE 20 0 0,0
25.09.2018 17:00:00 19,3 8,7 8 5 32 18 SSE 20 49 0,0
25.09.2018 16:00:00 21,7 8,9 11 6 33 18 SSE 20 60 0,0
25.09.2018 15:00:00 22,5 9,3 8 4 31 17 SE 20 60 0,0
25.09.2018 14:00:00 21,7 9,9 7 4 31 17 SE 20 60 -
25.09.2018 13:00:00 20,4 8,4 9 5 31 17 SSE 20 60 0,0
25.09.2018 12:00:00 18,1 8,7 7 4 26 14 SE 20 60 0,0
25.09.2018 11:00:00 13,1 8,8 5 3 14 7 ESE 20 34 0,0
25.09.2018 10:00:00 10,1 9,4 2 1 5 3 E 20 2 0,0
25.09.2018 09:00:00 7,3 6,8 1 1 5 3 E 20 0 0,0
25.09.2018 08:00:00 7,1 6,5 0 0 4 2 N 20 0 -
25.09.2018 07:00:00 7,3 6,4 1 1 13 7 NE 20 0 0,0
25.09.2018 06:00:00 7,3 6,5 0 0 4 2 N 20 0 0,0
25.09.2018 05:00:00 7,8 6,8 0 0 8 4 N 20 0 0,0
25.09.2018 04:00:00 8,2 7,1 2 1 14 8 NNW 20 0 0,0
25.09.2018 03:00:00 8,7 7,3 0 0 13 7 N 20 0 0,0
25.09.2018 02:00:00 9,4 7,7 2 1 6 4 N 20 0 -
25.09.2018 01:00:00 10,3 7,6 2 1 9 5 W 20 0 0,0
25.09.2018 00:00:00 11,0 7,7 3 1 9 5 WNW 20 0 0,0
24.09.2018 23:00:00 12,0 7,8 3 2 14 7 WNW 20 0 0,0
24.09.2018 22:00:00 13,5 8,0 2 1 13 7 WNW 20 0 0,0
24.09.2018 21:00:00 15,7 8,7 1 1 24 13 ENE 20 0 0,0
24.09.2018 20:00:00 18,1 8,1 8 4 42 23 NNW 20 0 -
24.09.2018 19:00:00 19,8 7,8 14 8 39 21 NW 20 0 0,0
24.09.2018 18:00:00 21,5 7,7 13 7 39 21 WNW 20 0 0,0
24.09.2018 17:00:00 23,8 6,1 11 6 34 19 WNW 17 51 0,0
24.09.2018 16:00:00 27,1 8,5 6 3 22 12 WNW 20 60 0,0
24.09.2018 15:00:00 28,3 7,0 3 1 23 12 W 20 60 0,0
24.09.2018 14:00:00 27,9 8,3 4 2 19 10 N 20 60 -
24.09.2018 13:00:00 25,8 3,8 11 6 21 11 NNW 20 60 0,0
24.09.2018 12:00:00 24,5 6,2 6 4 23 13 NNW 20 60 0,0
24.09.2018 11:00:00 22,0 8,1 10 6 24 13 NW 20 25 0,0
24.09.2018 10:00:00 19,2 9,9 9 5 21 12 NNW 20 2 0,0
24.09.2018 09:00:00 16,2 10,5 8 4 21 11 NNW 20 0 0,0
24.09.2018 08:00:00 13,3 10,5 6 4 15 8 NW 20 0 -
24.09.2018 07:00:00 11,9 9,7 2 1 5 3 ENE 20 0 0,0
24.09.2018 06:00:00 13,6 9,4 2 1 24 13 SE 20 0 0,0
24.09.2018 05:00:00 15,5 7,7 11 6 27 15 N 20 0 0,0
24.09.2018 04:00:00 13,7 10,2 2 1 16 9 W 20 0 0,0
24.09.2018 03:00:00 12,2 11,0 1 1 9 5 ENE 20 0 0,0
24.09.2018 02:00:00 12,8 10,9 2 1 16 9 E 20 0 -
24.09.2018 01:00:00 14,0 11,0 3 1 10 5 NW 20 0 0,0
24.09.2018 00:00:00 15,6 11,2 5 3 22 12 NW 20 0 0,0
23.09.2018 23:00:00 17,9 11,0 8 4 20 11 NNW 20 0 0,0
23.09.2018 22:00:00 18,7 12,2 10 5 29 16 NW 20 0 0,0
23.09.2018 21:00:00 21,1 11,7 12 7 37 20 NW 20 0 0,0
23.09.2018 20:00:00 21,3 12,7 9 5 32 17 NW 20 0 -
23.09.2018 19:00:00 21,5 13,7 8 4 20 11 NW 20 0 0,0
23.09.2018 18:00:00 23,2 14,7 6 3 17 9 NW 20 0 0,0
23.09.2018 17:00:00 27,0 13,8 3 2 16 9 S 20 48 0,0
23.09.2018 16:00:00 29,3 13,6 6 3 22 12 SSE 20 60 0,0
23.09.2018 15:00:00 29,2 11,7 7 4 25 13 SE 20 60 0,0
23.09.2018 14:00:00 28,2 10,9 9 5 25 14 SE 20 60 -
23.09.2018 13:00:00 27,2 10,4 6 3 27 14 ESE 20 60 0,0
23.09.2018 12:00:00 24,3 11,2 5 3 15 8 ESE 20 60 0,0
23.09.2018 11:00:00 18,9 13,8 2 1 6 3 SE 20 25 0,0
23.09.2018 10:00:00 14,7 12,0 3 1 19 10 NNW 20 3 0,0
23.09.2018 09:00:00 10,5 9,7 0 0 15 8 N 20 0 0,0
23.09.2018 08:00:00 10,2 9,3 1 1 13 7 N 20 0 -
23.09.2018 07:00:00 10,4 9,0 1 1 14 7 NW 20 0 0,0
23.09.2018 06:00:00 11,0 9,0 1 1 16 9 W 20 0 0,0
23.09.2018 05:00:00 11,3 9,2 2 1 13 7 WNW 20 0 0,0
23.09.2018 04:00:00 11,4 9,3 4 2 12 6 NW 20 0 0,0
23.09.2018 03:00:00 11,6 9,7 2 1 11 6 W 20 0 0,0
23.09.2018 02:00:00 12,6 9,9 4 2 13 7 WNW 20 0 -
23.09.2018 01:00:00 12,8 11,2 3 1 11 6 WNW 20 0 0,0
23.09.2018 00:00:00 14,1 11,6 4 2 19 10 NW 20 0 0,0
22.09.2018 23:00:00 14,7 12,7 2 1 14 8 W 20 0 0,0
22.09.2018 22:00:00 15,6 13,5 1 1 12 7 W 20 0 0,0
22.09.2018 21:00:00 16,5 13,6 6 3 18 10 NNW 20 0 0,0
22.09.2018 20:00:00 17,1 14,7 0 0 6 3 N 12 0 -
22.09.2018 19:00:00 18,7 15,0 2 1 9 5 NW 20 0 0,0
22.09.2018 18:00:00 20,4 15,0 3 2 8 5 WNW 20 0 0,0
22.09.2018 17:00:00 24,8 14,5 2 1 17 9 SSW 20 56 0,0
22.09.2018 16:00:00 28,1 12,0 5 3 24 13 SE 20 60 0,0
22.09.2018 15:00:00 27,8 11,8 8 4 28 15 SE 20 60 0,0
22.09.2018 14:00:00 27,4 10,5 9 5 28 15 SSE 20 60 -
22.09.2018 13:00:00 25,5 11,7 8 5 21 12 SSE 20 60 0,0
22.09.2018 12:00:00 22,4 12,1 4 2 16 9 SE 20 60 0,0
22.09.2018 11:00:00 17,5 13,1 2 1 6 3 SE 20 28 0,0
22.09.2018 10:00:00 13,7 12,1 1 1 10 5 N 20 0 0,0
22.09.2018 09:00:00 10,6 10,3 0 0 13 7 N 20 0 0,0
22.09.2018 08:00:00 9,9 9,6 1 1 6 3 NE 20 0 -
22.09.2018 07:00:00 10,0 9,6 1 1 9 5 NNE 20 0 0,0
22.09.2018 06:00:00 10,4 9,8 2 1 10 5 NW 20 0 0,0
22.09.2018 05:00:00 10,9 9,9 4 2 10 6 WNW 20 0 0,0
22.09.2018 04:00:00 11,3 10,4 2 1 8 4 NW 20 0 0,0
22.09.2018 03:00:00 12,2 10,3 3 2 18 10 WNW 20 0 0,0
22.09.2018 02:00:00 12,7 11,1 4 2 15 8 WNW 20 0 -
22.09.2018 01:00:00 13,4 11,7 2 1 14 7 NW 20 0 0,0
22.09.2018 00:00:00 14,8 11,9 5 3 20 11 NW 20 0 0,0
21.09.2018 23:00:00 15,1 13,0 3 2 10 5 NW 20 0 0,0
21.09.2018 22:00:00 16,7 12,6 5 3 23 12 N 20 0 0,0
21.09.2018 21:00:00 16,2 13,5 5 3 13 7 NNW 20 0 0,0
21.09.2018 20:00:00 18,8 13,7 4 2 32 17 N 20 0 -
21.09.2018 19:00:00 21,0 12,4 11 6 32 17 NW 20 0 0,0
21.09.2018 18:00:00 19,9 14,7 4 2 16 9 WNW 20 0 0,0
21.09.2018 17:00:00 23,2 16,2 3 1 15 8 WNW 20 24 0,0
21.09.2018 16:00:00 24,4 17,6 2 1 5 3 W 20 30 0,0
21.09.2018 15:00:00 23,9 17,9 1 1 15 8 WNW 20 8 0,0
21.09.2018 14:00:00 24,4 14,8 4 2 14 8 SE 20 30 -
21.09.2018 13:00:00 21,7 16,6 2 1 8 4 SSE 20 12 0,0
21.09.2018 12:00:00 20,7 15,9 3 1 7 4 SE - 44 0,0
21.09.2018 11:00:00 18,2 14,9 3 2 7 4 N - 39 0,0
21.09.2018 10:00:00 15,4 14,9 1 1 17 9 N - 4 0,0
21.09.2018 09:00:00 13,1 12,7 2 1 10 5 WNW - 0 0,0
21.09.2018 08:00:00 11,8 11,4 2 1 11 6 WNW - 0 -
21.09.2018 07:00:00 12,0 11,7 2 1 12 6 W - 0 0,2
21.09.2018 06:00:00 12,0 11,7 2 1 8 5 WNW - 0 0,0
21.09.2018 05:00:00 12,2 11,9 1 1 8 4 W - 0 0,0
21.09.2018 04:00:00 12,7 12,4 2 1 14 8 WNW - 0 0,0
21.09.2018 03:00:00 12,9 12,6 0 0 10 6 N - 0 0,0
21.09.2018 02:00:00 13,1 12,7 0 0 16 8 N - 0 -
21.09.2018 01:00:00 13,4 13,1 2 1 9 5 NW - 0 0,0
21.09.2018 00:00:00 13,9 13,6 2 1 13 7 NW - 0 0,0
20.09.2018 23:00:00 14,6 14,3 6 3 16 9 NNW - 0 0,0
20.09.2018 22:00:00 15,2 14,7 2 1 18 10 WNW - 0 0,0
20.09.2018 21:00:00 15,8 15,2 2 1 6 4 NW - 0 0,0
20.09.2018 20:00:00 17,4 16,4 1 1 20 11 NW - 0 -
20.09.2018 19:00:00 18,4 15,8 11 6 31 17 N - 0 1,2
20.09.2018 18:00:00 19,8 16,0 3 1 6 3 NW 20 0 0,0
20.09.2018 17:00:00 23,5 15,8 2 1 11 6 WNW 20 33 0,0
20.09.2018 16:00:00 26,3 15,6 2 1 10 6 S 20 40 0,0
20.09.2018 15:00:00 23,5 15,5 3 1 24 13 S 20 23 0,0
20.09.2018 14:00:00 26,9 13,9 8 5 24 13 SE 20 60 -
20.09.2018 13:00:00 25,3 13,9 9 5 23 12 ESE 20 60 0,0
20.09.2018 12:00:00 22,6 13,7 3 2 8 4 ESE 20 60 0,0
20.09.2018 11:00:00 17,4 13,6 1 1 14 7 N 20 32 0,0

tt = temperature
td = dewpoint
ff = wind speed
fx = gusts
dd = wind direction
vv = visibility
sd = sunshine duration
rr = precipitation

Next stations